createdAt,value
2018-12-09T00:05:07.646Z,7.80
2018-12-09T00:26:14.939Z,7.60
2018-12-09T00:29:01.618Z,7.50
2018-12-09T00:37:01.786Z,7.60
2018-12-09T00:39:40.734Z,7.50
2018-12-09T01:15:30.186Z,8.10
2018-12-09T01:52:38.607Z,8.10
2018-12-09T01:58:24.579Z,7.80
2018-12-09T02:04:00.579Z,7.90
2018-12-09T03:13:15.510Z,7.50
2018-12-09T03:27:43.560Z,7.50
2018-12-09T03:53:31.853Z,7.60
2018-12-09T04:34:55.913Z,6.50
2018-12-09T04:37:51.225Z,6.50
2018-12-09T04:41:08.328Z,6.50
2018-12-09T04:43:40.732Z,6.50
2018-12-09T04:46:10.446Z,6.50
2018-12-09T04:51:43.337Z,6.60
2018-12-09T04:54:13.728Z,6.60
2018-12-09T05:01:05.846Z,6.70
2018-12-09T05:15:34.722Z,6.80
2018-12-09T05:18:16.470Z,6.80
2018-12-09T05:20:55.217Z,6.80
2018-12-09T05:23:25.412Z,6.80
2018-12-09T05:42:34.836Z,7.00
2018-12-09T06:53:06.228Z,6.90
2018-12-09T07:01:37.154Z,6.90
2018-12-09T07:52:35.669Z,7.10
2018-12-09T08:03:14.461Z,7.20
2018-12-09T08:05:46.308Z,7.40
2018-12-09T08:08:16.470Z,7.40
2018-12-09T08:10:54.159Z,7.50
2018-12-09T08:13:28.383Z,7.60
2018-12-09T08:30:24.501Z,7.70
2018-12-09T08:37:14.114Z,7.60
2018-12-09T08:42:44.941Z,7.60
2018-12-09T08:45:21.301Z,7.50
2018-12-09T08:47:50.474Z,7.60
2018-12-09T08:54:28.297Z,7.60
2018-12-09T08:59:49.602Z,7.70
2018-12-09T09:05:24.246Z,7.60
2018-12-09T09:16:27.033Z,7.80
2018-12-09T09:19:21.171Z,7.80
2018-12-09T09:32:32.661Z,7.70
2018-12-09T09:38:57.352Z,7.80
2018-12-09T09:41:25.795Z,7.80
2018-12-09T09:47:55.672Z,7.80
2018-12-09T09:55:18.153Z,7.80
2018-12-09T10:05:13.714Z,7.80
2018-12-09T10:07:56.942Z,7.80
2018-12-09T10:23:42.396Z,7.80
2018-12-09T10:26:11.796Z,8.30
2018-12-09T10:28:40.070Z,8.20
2018-12-09T10:31:08.792Z,8.20
2018-12-09T10:33:37.872Z,8.10
2018-12-09T10:36:06.217Z,8.10
2018-12-09T10:38:38.907Z,8.00
2018-12-09T10:41:07.554Z,8.00
2018-12-09T10:43:36.450Z,8.00
2018-12-09T10:46:05.077Z,7.90
2018-12-09T10:52:56.697Z,7.90
2018-12-09T10:55:25.969Z,8.00
2018-12-09T10:57:54.299Z,8.10
2018-12-09T11:00:27.935Z,8.10
2018-12-09T11:02:56.164Z,8.10
2018-12-09T11:05:35.026Z,8.00
2018-12-09T11:08:03.485Z,7.90
2018-12-09T11:10:33.689Z,7.80
2018-12-09T11:13:01.887Z,7.70
2018-12-09T11:15:30.084Z,7.60
2018-12-09T11:17:58.267Z,7.60
2018-12-09T11:20:26.493Z,7.70
2018-12-09T11:22:54.941Z,7.80
2018-12-09T11:25:23.172Z,7.80
2018-12-09T11:27:51.428Z,7.70
2018-12-09T11:30:19.597Z,7.80
2018-12-09T11:32:47.760Z,7.70
2018-12-09T11:35:16.180Z,7.70
2018-12-09T11:37:44.396Z,7.70
2018-12-09T11:40:12.643Z,7.70
2018-12-09T11:42:40.980Z,7.60
2018-12-09T11:45:10.772Z,7.60
2018-12-09T11:47:39.029Z,7.60
2018-12-09T11:50:08.399Z,7.50
2018-12-09T11:52:37.338Z,7.50
2018-12-09T11:55:05.692Z,7.40
2018-12-09T11:57:33.857Z,7.30
2018-12-09T12:00:02.106Z,7.20
2018-12-09T12:02:30.385Z,7.10
2018-12-09T12:04:58.582Z,7.10
2018-12-09T12:07:26.726Z,7.10
2018-12-09T12:09:54.921Z,7.00
2018-12-09T12:12:23.173Z,7.10
2018-12-09T12:14:51.435Z,7.10
2018-12-09T12:17:20.389Z,7.20
2018-12-09T12:19:49.436Z,7.20
2018-12-09T12:22:17.870Z,7.30
2018-12-09T12:24:46.018Z,7.30
2018-12-09T12:27:15.149Z,7.40
2018-12-09T12:29:43.309Z,7.30
2018-12-09T12:32:11.548Z,7.40
2018-12-09T12:34:39.695Z,7.40
2018-12-09T12:37:08.802Z,7.50
2018-12-09T12:39:37.258Z,7.60
2018-12-09T12:42:05.512Z,7.60
2018-12-09T12:44:34.358Z,7.70
2018-12-09T12:47:02.712Z,7.80
2018-12-09T12:49:30.961Z,7.70
2018-12-09T12:52:00.356Z,7.70
2018-12-09T12:54:28.818Z,7.80
2018-12-09T12:56:57.427Z,7.70
2018-12-09T12:59:26.605Z,7.60
2018-12-09T13:01:55.751Z,7.50
2018-12-09T13:04:28.570Z,7.40
2018-12-09T13:06:57.304Z,7.40
2018-12-09T13:09:26.625Z,7.40
2018-12-09T13:11:55.606Z,7.30
2018-12-09T13:14:25.769Z,7.10
2018-12-09T13:16:53.963Z,6.50
2018-12-09T13:19:22.159Z,6.20
2018-12-09T13:21:55.313Z,6.00
2018-12-09T13:24:23.822Z,5.90
2018-12-09T13:29:48.308Z,5.50
2018-12-09T13:32:23.570Z,5.40
2018-12-09T13:34:53.513Z,5.30
2018-12-09T13:37:21.976Z,5.20
2018-12-09T13:39:51.140Z,5.20
2018-12-09T13:42:19.432Z,5.20
2018-12-09T13:44:47.668Z,5.30
2018-12-09T13:47:15.815Z,5.20
2018-12-09T13:49:44.537Z,5.20
2018-12-09T13:52:12.732Z,5.30
2018-12-09T13:54:43.210Z,5.30
2018-12-09T13:57:11.486Z,5.30
2018-12-09T13:59:39.647Z,5.30
2018-12-09T14:02:07.887Z,5.50
2018-12-09T14:04:36.133Z,5.50
2018-12-09T14:07:04.521Z,5.50
2018-12-09T14:09:32.680Z,5.60
2018-12-09T14:12:00.896Z,5.70
2018-12-09T14:14:29.114Z,5.70
2018-12-09T14:16:57.345Z,5.70
2018-12-09T14:19:25.908Z,5.80
2018-12-09T14:21:54.139Z,5.90
2018-12-09T14:24:22.685Z,5.90
2018-12-09T14:26:50.876Z,6.10
2018-12-09T14:29:19.180Z,6.10
2018-12-09T14:31:47.731Z,6.10
2018-12-09T14:34:16.070Z,6.20
2018-12-09T14:36:44.247Z,6.30
2018-12-09T14:39:12.790Z,6.30
2018-12-09T14:41:41.084Z,6.30
2018-12-09T14:44:09.261Z,6.40
2018-12-09T14:46:37.561Z,6.40
2018-12-09T14:49:05.744Z,6.40
2018-12-09T14:51:36.052Z,6.40
2018-12-09T14:54:04.368Z,6.50
2018-12-09T14:56:32.529Z,6.50
2018-12-09T14:59:00.717Z,6.50
2018-12-09T15:01:29.953Z,6.50
2018-12-09T15:03:58.220Z,6.50
2018-12-09T15:06:26.542Z,6.50
2018-12-09T15:08:57.859Z,6.50
2018-12-09T15:11:26.917Z,6.50
2018-12-09T15:13:55.666Z,6.50
2018-12-09T15:16:24.044Z,6.50
2018-12-09T15:18:52.669Z,6.40
2018-12-09T15:21:20.935Z,6.40
2018-12-09T15:23:50.551Z,6.30
2018-12-09T15:26:24.669Z,6.30
2018-12-09T15:28:53.626Z,6.20
2018-12-09T15:31:25.727Z,6.20
2018-12-09T15:33:53.940Z,6.20
2018-12-09T15:36:22.237Z,6.20
2018-12-09T15:38:50.601Z,6.20
2018-12-09T15:41:18.826Z,6.10
2018-12-09T15:43:47.263Z,6.10
2018-12-09T15:46:16.138Z,6.10
2018-12-09T15:48:45.681Z,6.00
2018-12-09T15:51:14.160Z,5.90
2018-12-09T15:53:43.097Z,5.90
2018-12-09T15:56:11.380Z,5.80
2018-12-09T15:58:39.720Z,5.80
2018-12-09T16:01:08.482Z,5.80
2018-12-09T16:03:36.751Z,5.80
2018-12-09T16:06:05.188Z,5.80
2018-12-09T16:08:33.411Z,5.80
2018-12-09T16:11:01.654Z,5.70
2018-12-09T16:13:29.872Z,5.70
2018-12-09T16:15:58.366Z,5.60
2018-12-09T16:18:26.583Z,5.70
2018-12-09T16:20:54.908Z,5.70
2018-12-09T16:23:23.453Z,5.80
2018-12-09T16:25:51.754Z,5.90
2018-12-09T16:28:20.036Z,5.90
2018-12-09T16:30:48.351Z,5.90
2018-12-09T16:33:19.475Z,6.00
2018-12-09T16:35:47.735Z,6.00
2018-12-09T16:38:16.091Z,6.00
2018-12-09T16:40:44.333Z,5.90
2018-12-09T16:43:12.868Z,6.00
2018-12-09T16:45:41.122Z,5.90
2018-12-09T16:48:09.355Z,6.00
2018-12-09T16:50:37.547Z,6.00
2018-12-09T16:53:05.831Z,6.10
2018-12-09T16:55:34.008Z,6.20
2018-12-09T16:58:04.044Z,6.10
2018-12-09T17:00:32.339Z,6.20
2018-12-09T17:03:00.643Z,6.10
2018-12-09T17:05:28.868Z,6.10
2018-12-09T17:07:57.044Z,6.00
2018-12-09T17:10:25.212Z,5.90
2018-12-09T17:12:53.455Z,5.90
2018-12-09T17:15:21.763Z,5.90
2018-12-09T17:17:49.950Z,5.90
2018-12-09T17:20:18.248Z,6.00
2018-12-09T17:22:46.535Z,6.00
2018-12-09T17:25:15.057Z,6.10
2018-12-09T17:27:43.306Z,6.10
2018-12-09T17:30:11.549Z,6.10
2018-12-09T17:32:39.760Z,6.10
2018-12-09T17:35:08.482Z,6.20
2018-12-09T17:37:37.019Z,6.10
2018-12-09T17:40:07.037Z,6.20
2018-12-09T17:42:35.449Z,6.20
2018-12-09T17:45:03.908Z,6.20
2018-12-09T17:47:33.529Z,6.30
2018-12-09T17:50:03.669Z,6.20
2018-12-09T17:52:32.872Z,6.30
2018-12-09T17:55:01.135Z,6.30
2018-12-09T17:57:29.329Z,6.30
2018-12-09T18:00:00.760Z,6.30
2018-12-09T18:02:29.280Z,6.20
2018-12-09T18:04:57.428Z,6.20
2018-12-09T18:07:27.242Z,6.10
2018-12-09T18:09:55.510Z,6.10
2018-12-09T18:12:24.579Z,6.10
2018-12-09T18:14:53.904Z,6.10
2018-12-09T18:20:13.945Z,6.00
2018-12-09T18:22:46.720Z,6.00
2018-12-09T18:25:15.862Z,6.00
2018-12-09T18:27:44.068Z,6.00
2018-12-09T18:30:12.733Z,6.10
2018-12-09T18:32:42.304Z,6.10
2018-12-09T18:35:13.489Z,6.20
2018-12-09T18:37:42.189Z,6.20
2018-12-09T18:40:17.017Z,6.20
2018-12-09T18:42:46.415Z,6.20
2018-12-09T18:45:15.583Z,6.10
2018-12-09T18:47:47.278Z,6.20
2018-12-09T18:50:15.532Z,6.30
2018-12-09T18:52:44.256Z,6.20
2018-12-09T18:55:12.553Z,6.30
2018-12-09T18:57:40.732Z,6.20
2018-12-09T19:00:09.099Z,6.30
2018-12-09T19:02:37.472Z,6.20
2018-12-09T19:05:07.490Z,6.20
2018-12-09T19:07:36.007Z,6.30
2018-12-09T19:10:05.081Z,6.30
2018-12-09T19:12:34.487Z,6.30
2018-12-09T19:15:03.530Z,6.20
2018-12-09T19:17:32.010Z,6.20
2018-12-09T19:20:01.715Z,6.20
2018-12-09T19:22:30.255Z,6.30
2018-12-09T19:24:58.504Z,6.20
2018-12-09T19:27:27.025Z,6.20
2018-12-09T19:29:56.574Z,6.20
2018-12-09T19:32:24.804Z,6.20
2018-12-09T19:34:53.987Z,6.20
2018-12-09T19:37:22.157Z,6.20
2018-12-09T19:39:50.581Z,6.10
2018-12-09T19:42:19.360Z,6.10
2018-12-09T19:44:47.976Z,6.00
2018-12-09T19:47:16.257Z,6.10
2018-12-09T19:49:44.508Z,6.10
2018-12-09T19:52:17.857Z,6.10
2018-12-09T19:54:47.131Z,6.00
2018-12-09T19:57:17.129Z,6.00
2018-12-09T19:59:45.524Z,6.00
2018-12-09T20:02:14.052Z,6.10
2018-12-09T20:04:42.304Z,6.00
2018-12-09T20:07:13.113Z,6.10
2018-12-09T20:09:41.317Z,6.10
2018-12-09T20:12:09.504Z,6.10
2018-12-09T20:14:37.736Z,6.00
2018-12-09T20:17:05.908Z,6.00
2018-12-09T20:19:35.037Z,5.90
2018-12-09T20:22:03.281Z,5.80
2018-12-09T20:24:31.606Z,5.80
2018-12-09T20:27:00.867Z,5.80
2018-12-09T20:29:29.056Z,5.80
2018-12-09T20:31:57.359Z,5.90
2018-12-09T20:34:25.600Z,6.00
2018-12-09T20:36:54.164Z,5.90
2018-12-09T20:39:23.049Z,6.00
2018-12-09T20:41:54.665Z,6.00
2018-12-09T20:44:22.850Z,6.00
2018-12-09T20:46:51.311Z,6.00
2018-12-09T20:49:20.799Z,5.90
2018-12-09T20:51:48.952Z,5.90
2018-12-09T20:54:17.152Z,5.80
2018-12-09T20:56:45.491Z,5.80
2018-12-09T20:59:13.744Z,5.70
2018-12-09T21:01:42.140Z,5.70
2018-12-09T21:04:10.334Z,5.60
2018-12-09T21:06:38.541Z,5.60
2018-12-09T21:09:07.560Z,5.60
2018-12-09T21:11:35.835Z,5.60
2018-12-09T21:14:04.134Z,5.60
2018-12-09T21:16:32.476Z,5.60
2018-12-09T21:19:00.745Z,5.60
2018-12-09T21:21:28.960Z,5.60
2018-12-09T21:23:57.366Z,5.60
2018-12-09T21:26:25.571Z,5.50
2018-12-09T21:28:54.148Z,5.50
2018-12-09T21:31:23.261Z,5.50
2018-12-09T21:33:52.367Z,5.40
2018-12-09T21:36:20.757Z,5.50
2018-12-09T21:38:49.209Z,5.50
2018-12-09T21:41:17.595Z,5.40
2018-12-09T21:43:45.784Z,5.40
2018-12-09T21:46:13.942Z,5.40
2018-12-09T21:48:42.217Z,5.30
2018-12-09T21:51:10.773Z,5.40
2018-12-09T21:53:38.973Z,5.40
2018-12-09T21:56:07.723Z,5.30
2018-12-09T21:58:36.256Z,5.30
2018-12-09T22:01:05.988Z,5.30
2018-12-09T22:03:34.235Z,5.30
2018-12-09T22:06:02.652Z,5.20
2018-12-09T22:08:30.857Z,5.20
2018-12-09T22:11:01.176Z,5.30
2018-12-09T22:13:29.539Z,5.30
2018-12-09T22:15:58.440Z,5.30
2018-12-09T22:18:26.631Z,5.30
2018-12-09T22:20:55.591Z,5.40
2018-12-09T22:23:23.746Z,5.40
2018-12-09T22:25:51.961Z,5.30
2018-12-09T22:28:20.193Z,5.40
2018-12-09T22:30:48.398Z,5.40
2018-12-09T22:33:17.571Z,5.30
2018-12-09T22:35:45.754Z,5.40
2018-12-09T22:38:13.999Z,5.40
2018-12-09T22:40:42.221Z,5.50
2018-12-09T22:43:10.400Z,5.50
2018-12-09T22:45:38.716Z,5.50
2018-12-09T22:48:06.905Z,5.50
2018-12-09T22:50:35.081Z,5.50
2018-12-09T22:53:03.301Z,5.50
2018-12-09T22:55:31.491Z,5.40
2018-12-09T22:57:59.851Z,5.40
2018-12-09T23:00:29.276Z,5.30
2018-12-09T23:03:03.188Z,5.30
2018-12-09T23:05:31.492Z,5.30
2018-12-09T23:07:59.811Z,5.30
2018-12-09T23:10:28.113Z,5.40
2018-12-09T23:12:56.311Z,5.40
2018-12-09T23:15:24.640Z,5.30
2018-12-09T23:17:52.926Z,5.30
2018-12-09T23:20:21.697Z,5.30
2018-12-09T23:22:50.900Z,5.30
2018-12-09T23:25:19.037Z,5.30
2018-12-09T23:27:47.242Z,5.20
2018-12-09T23:30:15.456Z,5.20
2018-12-09T23:32:43.633Z,5.30
2018-12-09T23:35:11.901Z,5.30
2018-12-09T23:37:40.057Z,5.20
2018-12-09T23:40:08.530Z,5.20
2018-12-09T23:42:37.213Z,5.10
2018-12-09T23:45:06.478Z,5.10
2018-12-09T23:47:34.717Z,5.00
2018-12-09T23:50:03.119Z,5.00
2018-12-09T23:52:31.327Z,5.00
2018-12-09T23:54:59.596Z,5.10
2018-12-09T23:57:29.784Z,5.00
2018-12-09T23:59:58.548Z,5.00
